LNNPK ENKJ-ENSI
Flight info
| Callsign | LNNPK |
|---|---|
| Flight time | 0h 12m |
| Altitude | 4000 |
| Route | VP084 |
| Aircraft | C172/L-SFG/C |
Departure
| Time | 2026-05-06 16:43 |
|---|---|
| Airport | Lillestrøm Airfield, Kjeller (ENKJ) |
Arrival
| Time | 2026-05-06 16:56 |
|---|---|
| Airport | Ski Airfield (ENSI) |
| Time | Latitude | Longitude | Altitude | Speed | Heading |
|---|---|---|---|---|---|
| 2026-05-06 16:37 | 59.96763 | 11.04912 | 358 ft | 0 kts | 324° |
| 2026-05-06 16:38 | 59.96772 | 11.04896 | 358 ft | 4 kts | 292° |
| 2026-05-06 16:38 | 59.96763 | 11.04851 | 358 ft | 6 kts | 251° |
| 2026-05-06 16:39 | 59.96750 | 11.04812 | 361 ft | 0 kts | 212° |
| 2026-05-06 16:40 | 59.96741 | 11.04774 | 360 ft | 7 kts | 248° |
| 2026-05-06 16:40 | 59.96719 | 11.04677 | 363 ft | 9 kts | 228° |
| 2026-05-06 16:40 | 59.96682 | 11.04740 | 357 ft | 7 kts | 124° |
| 2026-05-06 16:40 | 59.96638 | 11.04880 | 360 ft | 14 kts | 120° |
| 2026-05-06 16:41 | 59.96587 | 11.05024 | 354 ft | 11 kts | 130° |
| 2026-05-06 16:41 | 59.96588 | 11.05073 | 359 ft | 4 kts | 311° |
| 2026-05-06 16:41 | 59.96609 | 11.05005 | 357 ft | 4 kts | 302° |
| 2026-05-06 16:41 | 59.96610 | 11.05001 | 357 ft | 0 kts | 303° |
| 2026-05-06 16:42 | 59.96628 | 11.04942 | 359 ft | 22 kts | 301° |
| 2026-05-06 16:43 | 59.96799 | 11.04409 | 381 ft | 65 kts | 298° |
| 2026-05-06 16:43 | 59.97053 | 11.03629 | 562 ft | 70 kts | 298° |
| 2026-05-06 16:43 | 59.97316 | 11.02806 | 736 ft | 67 kts | 301° |
| 2026-05-06 16:43 | 59.97557 | 11.02067 | 959 ft | 64 kts | 285° |
| 2026-05-06 16:44 | 59.97668 | 11.01182 | 1100 ft | 66 kts | 258° |
| 2026-05-06 16:44 | 59.97225 | 11.00935 | 1199 ft | 78 kts | 184° |
| 2026-05-06 16:44 | 59.96602 | 11.01094 | 1302 ft | 101 kts | 173° |
| 2026-05-06 16:44 | 59.95935 | 11.01298 | 1525 ft | 92 kts | 177° |
| 2026-05-06 16:45 | 59.95327 | 11.01774 | 1680 ft | 102 kts | 155° |
| 2026-05-06 16:45 | 59.94668 | 11.01838 | 1375 ft | 121 kts | 192° |
| 2026-05-06 16:45 | 59.94017 | 11.01423 | 2092 ft | 98 kts | 195° |
| 2026-05-06 16:45 | 59.93287 | 11.01175 | 1892 ft | 101 kts | 200° |
| 2026-05-06 16:46 | 59.92603 | 11.00854 | 2020 ft | 94 kts | 201° |
| 2026-05-06 16:46 | 59.91958 | 11.00552 | 2143 ft | 94 kts | 201° |
| 2026-05-06 16:46 | 59.91355 | 11.00148 | 2236 ft | 80 kts | 205° |
| 2026-05-06 16:46 | 59.90797 | 10.99763 | 2158 ft | 94 kts | 206° |
| 2026-05-06 16:47 | 59.90115 | 10.99376 | 2370 ft | 112 kts | 204° |
| 2026-05-06 16:47 | 59.89363 | 10.98881 | 2415 ft | 112 kts | 205° |
| 2026-05-06 16:47 | 59.88635 | 10.98262 | 2435 ft | 112 kts | 212° |
| 2026-05-06 16:47 | 59.88005 | 10.97488 | 2488 ft | 103 kts | 234° |
| 2026-05-06 16:48 | 59.87420 | 10.96615 | 2521 ft | 104 kts | 224° |
| 2026-05-06 16:48 | 59.86810 | 10.95809 | 2590 ft | 108 kts | 216° |
| 2026-05-06 16:48 | 59.86126 | 10.95044 | 2478 ft | 120 kts | 213° |
| 2026-05-06 16:48 | 59.85286 | 10.94857 | 2504 ft | 144 kts | 169° |
| 2026-05-06 16:49 | 59.84425 | 10.94772 | 2431 ft | 120 kts | 197° |
| 2026-05-06 16:49 | 59.83685 | 10.94399 | 2429 ft | 102 kts | 208° |
| 2026-05-06 16:49 | 59.82948 | 10.94067 | 2352 ft | 120 kts | 191° |
| 2026-05-06 16:49 | 59.82075 | 10.93662 | 2407 ft | 122 kts | 193° |
| 2026-05-06 16:50 | 59.81300 | 10.93170 | 2087 ft | 137 kts | 195° |
| 2026-05-06 16:50 | 59.80495 | 10.92867 | 2334 ft | 103 kts | 197° |
| 2026-05-06 16:50 | 59.79839 | 10.92721 | 2467 ft | 94 kts | 191° |
| 2026-05-06 16:50 | 59.79395 | 10.92508 | 2224 ft | 100 kts | 191° |
| 2026-05-06 16:51 | 59.78507 | 10.92343 | 2031 ft | 99 kts | 192° |
| 2026-05-06 16:51 | 59.77801 | 10.92358 | 2052 ft | 111 kts | 194° |
| 2026-05-06 16:51 | 59.77095 | 10.92104 | 1959 ft | 96 kts | 196° |
| 2026-05-06 16:51 | 59.76588 | 10.91499 | 1840 ft | 95 kts | 212° |
| 2026-05-06 16:52 | 59.75954 | 10.90841 | 1924 ft | 106 kts | 213° |
| 2026-05-06 16:52 | 59.75272 | 10.90246 | 2080 ft | 100 kts | 210° |
| 2026-05-06 16:52 | 59.74638 | 10.89651 | 1963 ft | 105 kts | 209° |
| 2026-05-06 16:52 | 59.73898 | 10.89537 | 1728 ft | 104 kts | 182° |
| 2026-05-06 16:53 | 59.73223 | 10.89593 | 1672 ft | 89 kts | 187° |
| 2026-05-06 16:53 | 59.72624 | 10.89639 | 1672 ft | 82 kts | 186° |
| 2026-05-06 16:53 | 59.72056 | 10.89663 | 1607 ft | 84 kts | 189° |
| 2026-05-06 16:53 | 59.71408 | 10.89670 | 1460 ft | 104 kts | 183° |
| 2026-05-06 16:54 | 59.70883 | 10.89355 | 1329 ft | 79 kts | 273° |
| 2026-05-06 16:54 | 59.71172 | 10.88405 | 864 ft | 79 kts | 235° |
| 2026-05-06 16:54 | 59.70561 | 10.88132 | 388 ft | 80 kts | 188° |
| 2026-05-06 16:54 | 59.70087 | 10.88287 | 623 ft | 75 kts | 135° |
| 2026-05-06 16:55 | 59.70275 | 10.89117 | 783 ft | 83 kts | 17° |
| 2026-05-06 16:55 | 59.70884 | 10.89406 | 1012 ft | 88 kts | 9° |
| 2026-05-06 16:55 | 59.71257 | 10.89562 | 1188 ft | 77 kts | 357° |
| 2026-05-06 16:55 | 59.71633 | 10.89162 | 966 ft | 63 kts | 282° |
| 2026-05-06 16:56 | 59.71425 | 10.88441 | 643 ft | 68 kts | 211° |
| 2026-05-06 16:56 | 59.70979 | 10.88260 | 428 ft | 60 kts | 197° |
| 2026-05-06 16:56 | 59.70650 | 10.88153 | 379 ft | 23 kts | 188° |
| 2026-05-06 16:56 | 59.70621 | 10.88155 | 377 ft | 6 kts | 10° |
| 2026-05-06 16:57 | 59.70811 | 10.88201 | 386 ft | 34 kts | 13° |
| 2026-05-06 16:57 | 59.70883 | 10.88282 | 390 ft | 8 kts | 140° |
| 2026-05-06 16:57 | 59.70880 | 10.88302 | 391 ft | 0 kts | 353° |
| 2026-05-06 16:58 | 59.70898 | 10.88296 | 392 ft | 9 kts | 350° |
| 2026-05-06 16:58 | 59.70930 | 10.88257 | 392 ft | 0 kts | 223° |
| 2026-05-06 16:58 | 59.70794 | 10.88211 | 388 ft | 46 kts | 186° |
| 2026-05-06 16:59 | 59.70424 | 10.88140 | 493 ft | 67 kts | 182° |
| 2026-05-06 16:59 | 59.70005 | 10.87675 | 619 ft | 69 kts | 234° |
| 2026-05-06 16:59 | 59.69925 | 10.86727 | 754 ft | 75 kts | 275° |
| 2026-05-06 16:59 | 59.70149 | 10.85687 | 896 ft | 88 kts | 292° |
| 2026-05-06 17:00 | 59.70451 | 10.84575 | 1075 ft | 95 kts | 294° |
| 2026-05-06 17:00 | 59.70751 | 10.83338 | 1217 ft | 95 kts | 290° |
| 2026-05-06 17:00 | 59.71000 | 10.82182 | 1305 ft | 101 kts | 297° |
| 2026-05-06 17:00 | 59.71489 | 10.81101 | 1811 ft | 87 kts | 340° |
| 2026-05-06 17:01 | 59.71975 | 10.80079 | 1625 ft | 110 kts | 296° |
| 2026-05-06 17:01 | 59.72479 | 10.79101 | 1735 ft | 92 kts | 313° |
| 2026-05-06 17:01 | 59.72974 | 10.78247 | 1867 ft | 94 kts | 312° |
| 2026-05-06 17:01 | 59.73494 | 10.77366 | 2012 ft | 104 kts | 315° |
| 2026-05-06 17:02 | 59.74070 | 10.76380 | 2155 ft | 116 kts | 317° |
| 2026-05-06 17:02 | 59.74623 | 10.75471 | 2277 ft | 92 kts | 309° |
| 2026-05-06 17:02 | 59.75064 | 10.74616 | 2397 ft | 91 kts | 314° |
| 2026-05-06 17:02 | 59.75645 | 10.73816 | 2544 ft | 107 kts | 324° |
| 2026-05-06 17:03 | 59.76292 | 10.72997 | 2689 ft | 116 kts | 324° |
| 2026-05-06 17:03 | 59.76953 | 10.72113 | 2756 ft | 102 kts | 310° |
| 2026-05-06 17:03 | 59.77487 | 10.71238 | 2749 ft | 98 kts | 326° |
| 2026-05-06 17:03 | 59.78129 | 10.70908 | 2879 ft | 99 kts | 342° |
| 2026-05-06 17:04 | 59.78893 | 10.70644 | 2968 ft | 123 kts | 348° |
| 2026-05-06 17:04 | 59.79777 | 10.70630 | 2931 ft | 130 kts | 354° |
| 2026-05-06 17:04 | 59.80666 | 10.70733 | 2874 ft | 119 kts | 359° |
| 2026-05-06 17:04 | 59.81449 | 10.70911 | 2900 ft | 118 kts | 0° |
| 2026-05-06 17:05 | 59.82268 | 10.71178 | 2905 ft | 115 kts | 1° |
| 2026-05-06 17:05 | 59.83078 | 10.71441 | 2889 ft | 121 kts | 3° |
| 2026-05-06 17:05 | 59.83913 | 10.71750 | 2852 ft | 122 kts | 5° |
| 2026-05-06 17:05 | 59.84717 | 10.72073 | 2800 ft | 117 kts | 4° |
| 2026-05-06 17:06 | 59.85505 | 10.72436 | 2782 ft | 117 kts | 6° |
| 2026-05-06 17:06 | 59.86276 | 10.72842 | 2759 ft | 116 kts | 7° |
| 2026-05-06 17:06 | 59.87124 | 10.73337 | 2749 ft | 133 kts | 11° |
| 2026-05-06 17:06 | 59.87971 | 10.73878 | 2735 ft | 122 kts | 12° |
| 2026-05-06 17:07 | 59.88745 | 10.74496 | 2731 ft | 119 kts | 17° |
| 2026-05-06 17:07 | 59.89522 | 10.75213 | 2730 ft | 122 kts | 19° |
| 2026-05-06 17:07 | 59.90270 | 10.76018 | 2713 ft | 123 kts | 22° |
| 2026-05-06 17:07 | 59.91000 | 10.76865 | 2691 ft | 122 kts | 25° |
| 2026-05-06 17:08 | 59.91713 | 10.77817 | 2667 ft | 125 kts | 29° |
| 2026-05-06 17:08 | 59.92401 | 10.78859 | 2679 ft | 121 kts | 33° |
| 2026-05-06 17:08 | 59.93037 | 10.79926 | 2719 ft | 121 kts | 35° |
| 2026-05-06 17:08 | 59.93669 | 10.81073 | 2692 ft | 121 kts | 35° |
| 2026-05-06 17:09 | 59.94290 | 10.82164 | 2696 ft | 121 kts | 37° |
| 2026-05-06 17:09 | 59.94909 | 10.83297 | 2712 ft | 119 kts | 37° |
| 2026-05-06 17:09 | 59.95539 | 10.84450 | 2690 ft | 125 kts | 37° |
| 2026-05-06 17:09 | 59.96177 | 10.85590 | 2626 ft | 124 kts | 36° |
| 2026-05-06 17:10 | 59.96828 | 10.86735 | 2553 ft | 129 kts | 36° |
| 2026-05-06 17:10 | 59.97535 | 10.87856 | 2496 ft | 129 kts | 30° |
| 2026-05-06 17:10 | 59.98222 | 10.88827 | 2467 ft | 119 kts | 28° |
| 2026-05-06 17:10 | 59.98948 | 10.89780 | 2409 ft | 127 kts | 26° |
| 2026-05-06 17:11 | 59.99688 | 10.90694 | 2384 ft | 129 kts | 27° |
| 2026-05-06 17:11 | 60.00453 | 10.91574 | 2336 ft | 115 kts | 22° |
| 2026-05-06 17:11 | 60.01181 | 10.92316 | 2330 ft | 124 kts | 19° |
| 2026-05-06 17:11 | 60.01953 | 10.93041 | 2313 ft | 113 kts | 18° |
| 2026-05-06 17:12 | 60.02694 | 10.93729 | 2317 ft | 121 kts | 18° |
| 2026-05-06 17:12 | 60.03462 | 10.94438 | 2316 ft | 119 kts | 17° |
| 2026-05-06 17:12 | 60.04195 | 10.95089 | 2318 ft | 113 kts | 18° |
| 2026-05-06 17:12 | 60.04924 | 10.95757 | 2307 ft | 117 kts | 16° |
| 2026-05-06 17:13 | 60.05684 | 10.96470 | 2309 ft | 123 kts | 17° |
| 2026-05-06 17:13 | 60.06464 | 10.97170 | 2292 ft | 124 kts | 19° |
| 2026-05-06 17:13 | 60.07195 | 10.97810 | 2280 ft | 118 kts | 15° |
| 2026-05-06 17:13 | 60.07957 | 10.98411 | 2276 ft | 116 kts | 13° |
| 2026-05-06 17:14 | 60.08714 | 10.98983 | 2300 ft | 120 kts | 14° |
| 2026-05-06 17:14 | 60.09478 | 10.99571 | 2258 ft | 115 kts | 14° |
| 2026-05-06 17:14 | 60.10213 | 11.00079 | 2269 ft | 114 kts | 14° |
| 2026-05-06 17:14 | 60.10987 | 11.00679 | 2227 ft | 123 kts | 12° |
| 2026-05-06 17:15 | 60.11791 | 11.01238 | 2209 ft | 118 kts | 13° |
| 2026-05-06 17:15 | 60.12532 | 11.01636 | 2173 ft | 111 kts | 13° |
| 2026-05-06 17:15 | 60.13298 | 11.02026 | 2189 ft | 117 kts | 9° |
| 2026-05-06 17:15 | 60.14124 | 11.02515 | 2192 ft | 127 kts | 8° |
| 2026-05-06 17:16 | 60.15007 | 11.03006 | 2153 ft | 134 kts | 10° |
| 2026-05-06 17:16 | 60.15865 | 11.03457 | 2080 ft | 116 kts | 8° |
| 2026-05-06 17:16 | 60.16652 | 11.03832 | 2039 ft | 117 kts | 6° |
| 2026-05-06 17:16 | 60.17479 | 11.04193 | 2037 ft | 122 kts | 7° |
| 2026-05-06 17:17 | 60.18289 | 11.04629 | 1981 ft | 119 kts | 11° |
| 2026-05-06 17:17 | 60.19095 | 11.04992 | 1991 ft | 114 kts | 7° |
| 2026-05-06 17:17 | 60.19911 | 11.05357 | 1926 ft | 125 kts | 8° |
| 2026-05-06 17:17 | 60.20683 | 11.05794 | 1905 ft | 110 kts | 11° |
| 2026-05-06 17:18 | 60.21465 | 11.06291 | 1878 ft | 125 kts | 13° |
| 2026-05-06 17:18 | 60.22244 | 11.06769 | 1754 ft | 112 kts | 11° |
| 2026-05-06 17:18 | 60.22967 | 11.07252 | 1597 ft | 104 kts | 13° |
| 2026-05-06 17:18 | 60.23546 | 11.07710 | 1474 ft | 79 kts | 15° |
| 2026-05-06 17:19 | 60.24058 | 11.08201 | 1411 ft | 84 kts | 34° |
| 2026-05-06 17:19 | 60.24212 | 11.09245 | 1364 ft | 82 kts | 107° |
| 2026-05-06 17:19 | 60.23793 | 11.09959 | 1272 ft | 78 kts | 164° |
| 2026-05-06 17:19 | 60.23275 | 11.10121 | 1158 ft | 78 kts | 189° |
| 2026-05-06 17:20 | 60.22784 | 11.09887 | 1028 ft | 70 kts | 203° |
| 2026-05-06 17:20 | 60.22295 | 11.09590 | 899 ft | 77 kts | 202° |
| 2026-05-06 17:20 | 60.21786 | 11.09299 | 763 ft | 70 kts | 200° |
| 2026-05-06 17:20 | 60.21346 | 11.09038 | 680 ft | 56 kts | 192° |
| 2026-05-06 17:21 | 60.20985 | 11.08820 | 680 ft | 68 kts | 197° |
| 2026-05-06 17:21 | 60.20447 | 11.08530 | 824 ft | 91 kts | 200° |
| 2026-05-06 17:21 | 60.19889 | 11.08212 | 958 ft | 80 kts | 200° |
| 2026-05-06 17:21 | 60.19315 | 11.07903 | 1118 ft | 90 kts | 204° |
| 2026-05-06 17:22 | 60.18706 | 11.07549 | 1233 ft | 94 kts | 199° |
| 2026-05-06 17:22 | 60.18099 | 11.07058 | 1287 ft | 96 kts | 226° |
| 2026-05-06 17:22 | 60.17892 | 11.05888 | 1359 ft | 87 kts | 272° |
| 2026-05-06 17:22 | 60.17960 | 11.04635 | 1404 ft | 95 kts | 276° |
| 2026-05-06 17:23 | 60.18112 | 11.03425 | 1420 ft | 92 kts | 299° |
| 2026-05-06 17:23 | 60.18739 | 11.02948 | 1421 ft | 103 kts | 0° |
| 2026-05-06 17:23 | 60.19446 | 11.03222 | 1404 ft | 102 kts | 8° |
| 2026-05-06 17:23 | 60.20121 | 11.03595 | 1468 ft | 96 kts | 9° |
| 2026-05-06 17:24 | 60.20789 | 11.03989 | 1490 ft | 104 kts | 10° |
| 2026-05-06 17:24 | 60.21506 | 11.04389 | 1508 ft | 107 kts | 12° |
| 2026-05-06 17:24 | 60.22225 | 11.04783 | 1515 ft | 110 kts | 11° |
| 2026-05-06 17:24 | 60.22948 | 11.05216 | 1423 ft | 103 kts | 13° |
| 2026-05-06 17:25 | 60.23570 | 11.05658 | 1402 ft | 86 kts | 14° |
| 2026-05-06 17:25 | 60.24011 | 11.06326 | 1392 ft | 80 kts | 50° |
| 2026-05-06 17:25 | 60.24181 | 11.07430 | 1367 ft | 87 kts | 88° |
| 2026-05-06 17:25 | 60.23987 | 11.08587 | 1321 ft | 91 kts | 127° |
| 2026-05-06 17:26 | 60.23550 | 11.09439 | 1274 ft | 86 kts | 157° |
| 2026-05-06 17:26 | 60.22985 | 11.09759 | 1111 ft | 84 kts | 178° |
| 2026-05-06 17:26 | 60.22440 | 11.09689 | 950 ft | 81 kts | 201° |
| 2026-05-06 17:26 | 60.21857 | 11.09346 | 798 ft | 85 kts | 200° |
| 2026-05-06 17:27 | 60.21365 | 11.09055 | 683 ft | 61 kts | 198° |
| 2026-05-06 17:27 | 60.21006 | 11.08837 | 676 ft | 64 kts | 197° |
| 2026-05-06 17:27 | 60.20467 | 11.08546 | 719 ft | 82 kts | 199° |
| 2026-05-06 17:27 | 60.19935 | 11.08233 | 858 ft | 83 kts | 200° |
| 2026-05-06 17:28 | 60.19370 | 11.07727 | 1070 ft | 104 kts | 188° |
| 2026-05-06 17:28 | 60.18645 | 11.07477 | 1121 ft | 95 kts | 204° |
| 2026-05-06 17:28 | 60.18027 | 11.07038 | 1277 ft | 99 kts | 217° |
| 2026-05-06 17:28 | 60.17594 | 11.06129 | 1470 ft | 90 kts | 249° |
| 2026-05-06 17:29 | 60.17540 | 11.04795 | 1515 ft | 99 kts | 274° |
| 2026-05-06 17:29 | 60.17639 | 11.03517 | 1651 ft | 94 kts | 281° |
| 2026-05-06 17:29 | 60.17794 | 11.02235 | 1760 ft | 93 kts | 285° |
| 2026-05-06 17:29 | 60.17980 | 11.00921 | 1833 ft | 98 kts | 287° |
| 2026-05-06 17:30 | 60.18241 | 10.99802 | 1941 ft | 89 kts | 296° |
| 2026-05-06 17:30 | 60.18554 | 10.98564 | 2034 ft | 104 kts | 296° |
| 2026-05-06 17:30 | 60.18913 | 10.97242 | 2055 ft | 111 kts | 295° |
| 2026-05-06 17:30 | 60.19165 | 10.95953 | 2109 ft | 89 kts | 289° |
| 2026-05-06 17:31 | 60.19371 | 10.94738 | 2227 ft | 97 kts | 288° |
| 2026-05-06 17:31 | 60.19581 | 10.93402 | 2306 ft | 104 kts | 289° |
| 2026-05-06 17:31 | 60.19814 | 10.91923 | 2320 ft | 114 kts | 286° |
| 2026-05-06 17:31 | 60.20032 | 10.90533 | 2358 ft | 99 kts | 288° |
| 2026-05-06 17:32 | 60.20259 | 10.89134 | 2396 ft | 107 kts | 289° |
| 2026-05-06 17:32 | 60.20494 | 10.87741 | 2409 ft | 101 kts | 288° |
| 2026-05-06 17:32 | 60.20710 | 10.86376 | 2432 ft | 104 kts | 289° |
| 2026-05-06 17:32 | 60.21016 | 10.85053 | 2458 ft | 103 kts | 300° |
| 2026-05-06 17:33 | 60.21417 | 10.83849 | 2448 ft | 105 kts | 302° |
| 2026-05-06 17:33 | 60.21814 | 10.82623 | 2470 ft | 110 kts | 301° |
| 2026-05-06 17:33 | 60.22227 | 10.81326 | 2457 ft | 101 kts | 301° |
| 2026-05-06 17:33 | 60.22603 | 10.80080 | 2439 ft | 109 kts | 301° |
| 2026-05-06 17:34 | 60.23006 | 10.78782 | 2459 ft | 106 kts | 301° |
| 2026-05-06 17:34 | 60.23319 | 10.77489 | 2475 ft | 105 kts | 292° |
| 2026-05-06 17:34 | 60.23587 | 10.76098 | 2494 ft | 107 kts | 289° |
| 2026-05-06 17:34 | 60.23804 | 10.74695 | 2495 ft | 104 kts | 287° |
| 2026-05-06 17:35 | 60.23979 | 10.73277 | 2484 ft | 110 kts | 284° |
| 2026-05-06 17:35 | 60.24134 | 10.71840 | 2472 ft | 100 kts | 284° |
| 2026-05-06 17:35 | 60.24314 | 10.70407 | 2530 ft | 111 kts | 284° |
| 2026-05-06 17:36 | 60.24669 | 10.67609 | 2452 ft | 107 kts | 282° |
| 2026-05-06 17:36 | 60.24802 | 10.66076 | 2466 ft | 113 kts | 281° |
| 2026-05-06 17:36 | 60.24884 | 10.64642 | 2416 ft | 99 kts | 278° |
| 2026-05-06 17:36 | 60.24925 | 10.63302 | 2423 ft | 97 kts | 275° |
| 2026-05-06 17:37 | 60.24946 | 10.61788 | 2424 ft | 112 kts | 271° |
| 2026-05-06 17:37 | 60.24938 | 10.60281 | 2441 ft | 109 kts | 269° |
| 2026-05-06 17:37 | 60.24897 | 10.58805 | 2441 ft | 96 kts | 270° |
| 2026-05-06 17:37 | 60.24871 | 10.57415 | 2440 ft | 102 kts | 271° |
| 2026-05-06 17:38 | 60.24893 | 10.55963 | 2447 ft | 106 kts | 274° |
| 2026-05-06 17:38 | 60.24854 | 10.54456 | 2423 ft | 103 kts | 270° |
| 2026-05-06 17:38 | 60.24943 | 10.53129 | 2418 ft | 95 kts | 282° |
| 2026-05-06 17:38 | 60.25166 | 10.51740 | 2319 ft | 114 kts | 287° |
| 2026-05-06 17:39 | 60.25352 | 10.50184 | 2224 ft | 112 kts | 286° |
| 2026-05-06 17:39 | 60.25573 | 10.48677 | 2054 ft | 113 kts | 285° |
| 2026-05-06 17:39 | 60.25694 | 10.47102 | 1918 ft | 114 kts | 274° |
| 2026-05-06 17:39 | 60.25669 | 10.45564 | 1783 ft | 108 kts | 266° |
| 2026-05-06 17:40 | 60.25593 | 10.44569 | 1716 ft | 110 kts | 260° |
| 2026-05-06 17:40 | 60.25312 | 10.42633 | 1609 ft | 114 kts | 252° |
| 2026-05-06 17:40 | 60.25027 | 10.41092 | 1441 ft | 112 kts | 250° |
| 2026-05-06 17:40 | 60.24757 | 10.39731 | 1330 ft | 98 kts | 249° |
| 2026-05-06 17:41 | 60.24468 | 10.38414 | 1220 ft | 114 kts | 248° |
| 2026-05-06 17:41 | 60.24263 | 10.37466 | 1177 ft | 106 kts | 249° |
| 2026-05-06 17:41 | 60.23974 | 10.36392 | 1150 ft | 82 kts | 238° |
| 2026-05-06 17:41 | 60.23561 | 10.35583 | 1154 ft | 81 kts | 227° |
| 2026-05-06 17:42 | 60.23122 | 10.34797 | 1074 ft | 84 kts | 227° |
| 2026-05-06 17:42 | 60.22676 | 10.33999 | 958 ft | 81 kts | 224° |
| 2026-05-06 17:42 | 60.22305 | 10.33361 | 788 ft | 61 kts | 227° |
| 2026-05-06 17:42 | 60.21992 | 10.32809 | 674 ft | 57 kts | 225° |
| 2026-05-06 17:43 | 60.21710 | 10.32318 | 667 ft | 50 kts | 226° |
| 2026-05-06 17:43 | 60.21455 | 10.31872 | 661 ft | 48 kts | 226° |
| 2026-05-06 17:43 | 60.21248 | 10.31517 | 653 ft | 37 kts | 217° |
| 2026-05-06 17:43 | 60.21127 | 10.31577 | 655 ft | 17 kts | 94° |
| 2026-05-06 17:44 | 60.21124 | 10.31591 | 655 ft | 1 kts | 312° |
| 2026-05-06 17:44 | 60.21126 | 10.31587 | 655 ft | 0 kts | 313° |
| 2026-05-06 17:44 | 60.21126 | 10.31586 | 655 ft | 0 kts | 285° |
| 2026-05-06 17:45 | 60.21122 | 10.31583 | 655 ft | 4 kts | 175° |
| 2026-05-06 17:45 | 60.21038 | 10.31542 | 657 ft | 23 kts | 275° |
| 2026-05-06 17:45 | 60.21136 | 10.31589 | 655 ft | 21 kts | 105° |
| 2026-05-06 17:45 | 60.21121 | 10.31648 | 658 ft | 7 kts | 178° |
| 2026-05-06 17:46 | 60.21060 | 10.31405 | 660 ft | 42 kts | 263° |
| 2026-05-06 17:46 | 60.20913 | 10.30847 | 680 ft | 73 kts | 180° |
| 2026-05-06 17:46 | 60.21113 | 10.31614 | 664 ft | 104 kts | 25° |
| 2026-05-06 17:46 | 60.21023 | 10.31382 | 675 ft | 73 kts | 141° |
| 2026-05-06 17:47 | 60.20848 | 10.31746 | 652 ft | 12 kts | 146° |
| 2026-05-06 17:47 | 60.20922 | 10.31642 | 653 ft | 37 kts | 334° |
| 2026-05-06 17:47 | 60.21122 | 10.31577 | 655 ft | 0 kts | 8° |
| 2026-05-06 17:47 | 60.21113 | 10.31581 | 656 ft | 0 kts | 230° |
| 2026-05-06 17:54 | 60.21113 | 10.31578 | 652 ft | 4 kts | 282° |
| 2026-05-06 17:54 | 60.21156 | 10.31467 | 650 ft | 12 kts | 319° |
| 2026-05-06 17:54 | 60.21222 | 10.31415 | 649 ft | 16 kts | 20° |
| 2026-05-06 17:55 | 60.21374 | 10.31691 | 650 ft | 45 kts | 42° |
| 2026-05-06 17:55 | 60.21637 | 10.32178 | 656 ft | 55 kts | 73° |
| 2026-05-06 17:55 | 60.21498 | 10.32750 | 664 ft | 59 kts | 188° |
| 2026-05-06 17:55 | 60.21334 | 10.32231 | 685 ft | 58 kts | 289° |
| 2026-05-06 17:56 | 60.21059 | 10.31586 | 752 ft | 75 kts | 218° |
| 2026-05-06 17:56 | 60.20591 | 10.31074 | 919 ft | 79 kts | 210° |
| 2026-05-06 17:56 | 60.20064 | 10.30824 | 1134 ft | 80 kts | 192° |
| 2026-05-06 17:56 | 60.19521 | 10.31085 | 1350 ft | 86 kts | 156° |
| 2026-05-06 17:57 | 60.18984 | 10.31749 | 1575 ft | 92 kts | 136° |
| 2026-05-06 17:57 | 60.18603 | 10.32715 | 1913 ft | 61 kts | 124° |
| 2026-05-06 17:57 | 60.18354 | 10.33432 | 2078 ft | 64 kts | 126° |
| 2026-05-06 17:57 | 60.18091 | 10.34128 | 2207 ft | 62 kts | 124° |
| 2026-05-06 17:58 | 60.17853 | 10.34833 | 2231 ft | 60 kts | 123° |
| 2026-05-06 17:58 | 60.17585 | 10.35692 | 2268 ft | 81 kts | 121° |
| 2026-05-06 17:58 | 60.17303 | 10.36796 | 2530 ft | 97 kts | 116° |
| 2026-05-06 17:58 | 60.17033 | 10.38138 | 2724 ft | 118 kts | 113° |
| 2026-05-06 17:59 | 60.16634 | 10.39641 | 2972 ft | 128 kts | 119° |
| 2026-05-06 17:59 | 60.16172 | 10.41382 | 2965 ft | 152 kts | 119° |
| 2026-05-06 17:59 | 60.15631 | 10.43280 | 2971 ft | 160 kts | 121° |
| 2026-05-06 17:59 | 60.15045 | 10.45223 | 2979 ft | 164 kts | 122° |
| 2026-05-06 18:00 | 60.14448 | 10.47193 | 2976 ft | 166 kts | 122° |
| 2026-05-06 18:00 | 60.13840 | 10.49179 | 2980 ft | 168 kts | 122° |
| 2026-05-06 18:00 | 60.13228 | 10.51181 | 2975 ft | 170 kts | 122° |
| 2026-05-06 18:00 | 60.12610 | 10.53206 | 2969 ft | 168 kts | 122° |
| 2026-05-06 18:01 | 60.11999 | 10.55221 | 2980 ft | 169 kts | 122° |
| 2026-05-06 18:01 | 60.11383 | 10.57200 | 2974 ft | 169 kts | 122° |
| 2026-05-06 18:01 | 60.10777 | 10.59195 | 2965 ft | 167 kts | 122° |
| 2026-05-06 18:01 | 60.10166 | 10.61183 | 2973 ft | 169 kts | 122° |
| 2026-05-06 18:02 | 60.09542 | 10.63222 | 2971 ft | 171 kts | 122° |
| 2026-05-06 18:02 | 60.08925 | 10.65231 | 2963 ft | 167 kts | 122° |
| 2026-05-06 18:02 | 60.08317 | 10.67198 | 2969 ft | 165 kts | 122° |
| 2026-05-06 18:02 | 60.07726 | 10.69139 | 3095 ft | 161 kts | 122° |
| 2026-05-06 18:03 | 60.07142 | 10.71074 | 3116 ft | 165 kts | 123° |
| 2026-05-06 18:03 | 60.06523 | 10.73042 | 3119 ft | 168 kts | 123° |
| 2026-05-06 18:03 | 60.05905 | 10.75031 | 3125 ft | 169 kts | 123° |
| 2026-05-06 18:03 | 60.05290 | 10.77030 | 3126 ft | 168 kts | 123° |
| 2026-05-06 18:04 | 60.04678 | 10.79012 | 3123 ft | 167 kts | 123° |
| 2026-05-06 18:04 | 60.04070 | 10.80970 | 3127 ft | 166 kts | 123° |
| 2026-05-06 18:04 | 60.03459 | 10.82946 | 3128 ft | 167 kts | 123° |
| 2026-05-06 18:04 | 60.02846 | 10.84926 | 3132 ft | 167 kts | 123° |
| 2026-05-06 18:05 | 60.02231 | 10.86909 | 3126 ft | 167 kts | 123° |
| 2026-05-06 18:05 | 60.01619 | 10.88881 | 3126 ft | 167 kts | 123° |
| 2026-05-06 18:05 | 60.01063 | 10.90732 | 2856 ft | 145 kts | 121° |
| 2026-05-06 18:05 | 60.00617 | 10.92391 | 2401 ft | 123 kts | 117° |
| 2026-05-06 18:06 | 60.00317 | 10.93583 | 2260 ft | 84 kts | 122° |
| 2026-05-06 18:06 | 60.00019 | 10.94573 | 2009 ft | 81 kts | 128° |
| 2026-05-06 18:06 | 59.99707 | 10.95534 | 1731 ft | 82 kts | 129° |
| 2026-05-06 18:06 | 59.99419 | 10.96468 | 1554 ft | 79 kts | 124° |
| 2026-05-06 18:07 | 59.99114 | 10.97355 | 1381 ft | 76 kts | 128° |
| 2026-05-06 18:07 | 59.98815 | 10.98214 | 1202 ft | 77 kts | 126° |
| 2026-05-06 18:07 | 59.98494 | 10.99163 | 985 ft | 85 kts | 124° |
| 2026-05-06 18:07 | 59.98182 | 11.00147 | 815 ft | 81 kts | 122° |
| 2026-05-06 18:08 | 59.97890 | 11.01049 | 700 ft | 76 kts | 124° |
| 2026-05-06 18:08 | 59.97598 | 11.01941 | 598 ft | 77 kts | 121° |
| 2026-05-06 18:08 | 59.97314 | 11.02798 | 403 ft | 70 kts | 123° |
| 2026-05-06 18:08 | 59.97081 | 11.03510 | 358 ft | 50 kts | 114° |
| 2026-05-06 18:09 | 59.96917 | 11.04044 | 351 ft | 45 kts | 121° |
| 2026-05-06 18:09 | 59.96792 | 11.04426 | 353 ft | 23 kts | 131° |
| 2026-05-06 18:09 | 59.96771 | 11.04490 | 354 ft | 0 kts | 95° |
| 2026-05-06 18:10 | 59.96802 | 11.04581 | 358 ft | 14 kts | 53° |
| 2026-05-06 18:10 | 59.96805 | 11.04717 | 357 ft | 9 kts | 121° |
| 2026-05-06 18:11 | 59.96768 | 11.04819 | 356 ft | 10 kts | 130° |
| 2026-05-06 18:11 | 59.96763 | 11.04868 | 354 ft | 1 kts | 188° |
| 2026-05-06 18:11 | 59.96746 | 11.04790 | 355 ft | 10 kts | 246° |
| 2026-05-06 18:11 | 59.96731 | 11.04593 | 362 ft | 18 kts | 304° |
| 2026-05-06 18:12 | 59.96760 | 11.04505 | 355 ft | 0 kts | 302° |
| 2026-05-06 18:13 | 59.96761 | 11.04504 | 355 ft | 2 kts | 310° |
| 2026-05-06 18:13 | 59.96814 | 11.04608 | 356 ft | 15 kts | 55° |
| 2026-05-06 18:13 | 59.96788 | 11.04759 | 357 ft | 18 kts | 115° |
| 2026-05-06 18:14 | 59.96746 | 11.04916 | 355 ft | 5 kts | 347° |
| 2026-05-06 18:14 | 59.96753 | 11.04910 | 357 ft | 0 kts | 324° |